Time;durP1;ratioP1;P1;durP2;ratioP2;P2;SDS_P1;SDS_P2;PMS_P1;PMS_P2;Temp;Humidity;BMP_temperature;BMP_pressure;BME280_temperature;BME280_humidity;BME280_pressure;Samples;Min_cycle;Max_cycle;Signal;HPM_P1;HPM_P2
2022/05/11 00:00:33;;;;;;;17.25;3.40;;;12.50;92.40;;;;;;5009934;28;20034;-51
2022/05/11 00:02:58;;;;;;;20.90;3.75;;;12.50;92.40;;;;;;5015037;28;20021;-51
2022/05/11 00:05:24;;;;;;;24.88;3.75;;;12.50;92.50;;;;;;5011616;28;20044;-49
2022/05/11 00:07:50;;;;;;;17.60;2.97;;;12.50;92.60;;;;;;5003089;28;20030;-49
2022/05/11 00:10:15;;;;;;;21.98;2.97;;;12.40;92.80;;;;;;5012147;28;20143;-48
2022/05/11 00:12:43;;;;;;;28.27;4.35;;;12.40;92.80;;;;;;5010054;28;20033;-53
2022/05/11 00:15:11;;;;;;;19.27;2.95;;;12.40;92.80;;;;;;5017792;28;20053;-52
2022/05/11 00:17:37;;;;;;;16.48;4.13;;;12.40;92.90;;;;;;5005101;28;20041;-48
2022/05/11 00:20:06;;;;;;;22.27;3.58;;;12.50;92.80;;;;;;5014649;28;20475;-49
2022/05/11 00:22:33;;;;;;;21.42;3.65;;;12.50;92.70;;;;;;5017014;28;20061;-52
2022/05/11 00:25:00;;;;;;;19.80;4.50;;;12.40;92.70;;;;;;5014574;28;20076;-48
2022/05/11 00:27:25;;;;;;;22.33;4.00;;;12.50;92.60;;;;;;5011075;28;20473;-50
2022/05/11 00:29:51;;;;;;;25.20;2.45;;;12.50;92.60;;;;;;5017535;28;20052;-48
2022/05/11 00:32:17;;;;;;;18.27;3.50;;;12.60;92.50;;;;;;5009884;28;20029;-52
2022/05/11 00:34:43;;;;;;;26.35;3.97;;;12.60;92.50;;;;;;5002745;28;21997;-48
2022/05/11 00:37:09;;;;;;;16.20;3.60;;;12.60;92.50;;;;;;5012409;28;20022;-51
2022/05/11 00:39:35;;;;;;;18.92;3.00;;;12.60;92.50;;;;;;5014366;28;20130;-50
2022/05/11 00:42:04;;;;;;;18.48;4.60;;;12.60;92.40;;;;;;5023097;28;20029;-52
2022/05/11 00:44:30;;;;;;;23.67;2.92;;;12.60;92.40;;;;;;5009513;28;20068;-50
2022/05/11 00:47:01;;;;;;;23.80;3.28;;;12.60;92.00;;;;;;5008719;28;20022;-47
2022/05/11 00:49:43;;;;;;;12.88;2.85;;;12.50;92.30;;;;;;5018017;28;20034;-48
2022/05/11 00:52:22;;;;;;;17.40;2.83;;;12.50;92.30;;;;;;5009441;28;20067;-49
2022/05/11 00:55:03;;;;;;;24.15;3.75;;;12.50;92.20;;;;;;5012528;28;20045;-47
2022/05/11 00:57:35;;;;;;;20.13;3.33;;;12.50;92.00;;;;;;5007875;28;20539;-53
2022/05/11 01:00:01;;;;;;;;;;;12.50;91.90;;;;;;5015945;28;20498;-47
2022/05/11 01:02:27;;;;;;;32.05;4.85;;;12.50;91.80;;;;;;5014191;28;19910;-50
2022/05/11 01:04:59;;;;;;;25.33;3.20;;;12.50;91.70;;;;;;5012133;28;20030;-51
2022/05/11 01:07:27;;;;;;;17.25;3.47;;;12.50;91.90;;;;;;5010988;28;20033;-51
2022/05/11 01:09:53;;;;;;;13.77;3.45;;;12.50;91.80;;;;;;5013328;28;20168;-51
2022/05/11 01:12:22;;;;;;;22.08;2.83;;;12.50;91.80;;;;;;5010640;28;20029;-50
2022/05/11 01:14:54;;;;;;;21.50;4.25;;;12.50;91.70;;;;;;5004311;28;20048;-53
2022/05/11 01:17:24;;;;;;;23.55;3.75;;;12.60;91.70;;;;;;5013813;28;20481;-52
2022/05/11 01:19:50;;;;;;;20.42;3.28;;;12.60;91.70;;;;;;5017415;28;20488;-52
2022/05/11 01:22:40;;;;;;;22.52;4.18;;;12.60;91.60;;;;;;4998448;28;20026;-49
2022/05/11 01:25:09;;;;;;;23.40;4.85;;;12.60;91.60;;;;;;5013567;28;20021;-50
2022/05/11 01:27:36;;;;;;;22.95;2.75;;;12.70;91.60;;;;;;5002502;28;20069;-51
2022/05/11 01:30:12;;;;;;;20.08;3.70;;;12.60;91.60;;;;;;5008715;28;20022;-55
2022/05/11 01:32:40;;;;;;;16.08;3.30;;;12.60;91.50;;;;;;5016832;28;20026;-51
2022/05/11 01:35:32;;;;;;;16.48;3.60;;;12.60;91.40;;;;;;5007330;28;20053;-52
2022/05/11 01:37:59;;;;;;;28.85;3.40;;;12.50;91.20;;;;;;5004390;28;20030;-48
2022/05/11 01:40:25;;;;;;;18.13;3.95;;;12.60;91.30;;;;;;5013092;28;20036;-47
2022/05/11 01:42:51;;;;;;;18.40;2.28;;;12.60;91.30;;;;;;5004238;28;20407;-51
2022/05/11 01:45:17;;;;;;;16.80;2.08;;;12.60;91.20;;;;;;5007332;28;20465;-49
2022/05/11 01:47:43;;;;;;;17.50;3.03;;;12.60;91.30;;;;;;4996792;28;20033;-48
2022/05/11 01:50:09;;;;;;;18.65;2.78;;;12.60;91.20;;;;;;5004363;28;20036;-50
2022/05/11 01:52:34;;;;;;;18.65;2.95;;;12.60;91.30;;;;;;5005844;28;20054;-51
2022/05/11 01:55:01;;;;;;;19.58;2.70;;;12.60;91.10;;;;;;5006768;28;20061;-48
2022/05/11 01:57:26;;;;;;;26.90;4.35;;;12.60;91.10;;;;;;5005084;28;20026;-50
2022/05/11 01:59:52;;;;;;;16.42;2.88;;;12.60;91.30;;;;;;5003066;28;20037;-48
2022/05/11 02:02:17;;;;;;;19.48;2.60;;;12.60;91.30;;;;;;5009914;28;20064;-50
2022/05/11 02:10:11;;;;;;;12.55;2.85;;;12.40;91.00;;;;;;5003772;28;20076;-50
2022/05/11 02:12:38;;;;;;;22.13;2.90;;;12.40;91.10;;;;;;5009100;28;20029;-50
2022/05/11 02:15:05;;;;;;;18.02;3.65;;;12.30;91.20;;;;;;5003445;28;20073;-48
2022/05/11 02:17:30;;;;;;;13.70;3.65;;;12.30;91.30;;;;;;5003150;28;20058;-48
2022/05/11 02:19:56;;;;;;;17.17;3.58;;;12.30;91.40;;;;;;5001417;28;20033;-47
2022/05/11 02:22:22;;;;;;;24.10;3.75;;;12.30;91.40;;;;;;5020600;28;20496;-50
2022/05/11 02:24:47;;;;;;;21.25;2.45;;;12.20;91.60;;;;;;5009416;28;20474;-50
2022/05/11 02:27:13;;;;;;;14.57;2.47;;;12.20;91.60;;;;;;5005502;28;20653;-48
2022/05/11 02:29:39;;;;;;;15.20;2.40;;;12.30;91.60;;;;;;5009635;28;20120;-52
2022/05/11 02:32:05;;;;;;;16.65;3.30;;;12.30;91.40;;;;;;5000768;28;20030;-52
2022/05/11 02:37:15;;;;;;;18.88;3.28;;;12.30;91.40;;;;;;5004171;28;20065;-48
2022/05/11 02:39:41;;;;;;;14.60;2.08;;;12.30;91.10;;;;;;5005418;28;20057;-48
2022/05/11 02:42:06;;;;;;;15.32;2.72;;;12.40;90.90;;;;;;5006921;28;20023;-53
2022/05/11 02:44:32;;;;;;;17.00;2.75;;;12.40;90.80;;;;;;5010570;28;20520;-49
2022/05/11 02:46:58;;;;;;;26.17;3.58;;;12.40;90.90;;;;;;5007706;28;20034;-47
2022/05/11 02:49:24;;;;;;;24.98;5.30;;;12.40;90.90;;;;;;5004969;28;20478;-49
2022/05/11 02:51:49;;;;;;;18.58;2.78;;;12.40;90.80;;;;;;5012262;28;20053;-51
2022/05/11 02:54:15;;;;;;;18.52;2.97;;;12.40;90.80;;;;;;5008731;28;20041;-49
2022/05/11 02:56:41;;;;;;;24.77;3.08;;;12.50;90.60;;;;;;5010992;28;20500;-52
2022/05/11 02:59:08;;;;;;;15.63;2.90;;;12.50;90.70;;;;;;5010665;28;20492;-47
2022/05/11 03:01:34;;;;;;;12.57;2.78;;;12.50;90.50;;;;;;5014847;28;20119;-52
2022/05/11 03:04:00;;;;;;;16.40;3.28;;;12.50;90.40;;;;;;5006959;28;20053;-47
2022/05/11 03:06:26;;;;;;;11.55;2.58;;;12.50;90.60;;;;;;5007344;28;20060;-50
2022/05/11 03:08:52;;;;;;;14.02;2.30;;;12.50;90.60;;;;;;5013801;28;20037;-54
2022/05/11 03:11:17;;;;;;;16.40;2.25;;;12.60;90.50;;;;;;5008014;28;20041;-52
2022/05/11 03:13:43;;;;;;;18.40;3.75;;;12.60;90.50;;;;;;5001886;28;20061;-51
2022/05/11 03:16:09;;;;;;;22.15;3.33;;;12.50;90.50;;;;;;5011278;28;20099;-51
2022/05/11 03:18:35;;;;;;;16.92;3.05;;;12.40;90.50;;;;;;5015446;28;20123;-47
2022/05/11 03:21:01;;;;;;;17.42;2.80;;;12.50;90.70;;;;;;5014155;28;20029;-53
2022/05/11 03:23:27;;;;;;;17.65;2.38;;;12.50;90.90;;;;;;5011163;28;20030;-49
2022/05/11 03:25:54;;;;;;;17.33;3.08;;;12.50;90.80;;;;;;5018137;28;20557;-54
2022/05/11 03:28:20;;;;;;;14.98;2.63;;;12.30;90.60;;;;;;5017685;28;20042;-51
2022/05/11 03:30:46;;;;;;;14.77;3.30;;;12.40;90.60;;;;;;5012459;28;20026;-52
2022/05/11 03:35:56;;;;;;;15.80;2.80;;;12.30;90.40;;;;;;5002732;28;20041;-49
2022/05/11 03:38:21;;;;;;;10.07;2.25;;;12.40;90.30;;;;;;5010974;28;20026;-53
2022/05/11 03:40:47;;;;;;;11.15;2.17;;;12.40;90.20;;;;;;5015451;28;20064;-53
2022/05/11 03:43:13;;;;;;;9.75;2.25;;;12.40;90.00;;;;;;5027083;22;20054;-55
2022/05/11 03:45:38;;;;;;;13.73;2.63;;;12.50;89.60;;;;;;5010369;28;20038;-54
2022/05/11 03:48:04;;;;;;;11.65;2.53;;;12.50;89.30;;;;;;5001807;28;20018;-56
2022/05/11 03:50:32;;;;;;;12.60;2.95;;;12.60;89.00;;;;;;5011173;28;20026;-56
2022/05/11 03:52:58;;;;;;;17.23;2.33;;;12.60;89.00;;;;;;5001470;28;20033;-55
2022/05/11 03:55:26;;;;;;;13.98;3.80;;;12.60;88.80;;;;;;5011727;28;20117;-54
2022/05/11 03:57:52;;;;;;;13.10;2.30;;;12.70;89.10;;;;;;5005012;28;20064;-55
2022/05/11 04:00:23;;;;;;;12.38;2.58;;;12.70;89.90;;;;;;5012652;28;20024;-55
2022/05/11 04:02:50;;;;;;;22.63;3.88;;;12.70;90.20;;;;;;5016153;28;20075;-54
2022/05/11 04:05:16;;;;;;;14.35;2.55;;;12.70;90.50;;;;;;5008885;28;20033;-55
2022/05/11 04:07:42;;;;;;;17.00;3.00;;;12.70;90.40;;;;;;5011896;28;20026;-56
2022/05/11 04:10:10;;;;;;;14.95;4.30;;;12.60;90.40;;;;;;5012025;28;20034;-56
2022/05/11 04:12:36;;;;;;;22.10;3.28;;;12.60;90.60;;;;;;5001848;28;20041;-55
2022/05/11 04:15:03;;;;;;;18.17;3.45;;;12.60;90.70;;;;;;5008755;28;20425;-56
2022/05/11 04:17:28;;;;;;;12.73;3.45;;;12.50;90.80;;;;;;5007187;28;20092;-56
2022/05/11 04:19:55;;;;;;;9.80;3.47;;;12.60;90.80;;;;;;5005711;28;20026;-56
2022/05/11 04:22:21;;;;;;;11.95;2.25;;;12.60;90.60;;;;;;5012132;28;20114;-56
2022/05/11 04:24:47;;;;;;;16.52;4.28;;;12.60;90.50;;;;;;5005124;28;20058;-55
2022/05/11 04:27:13;;;;;;;18.60;3.10;;;12.70;90.60;;;;;;5010315;28;20046;-55
2022/05/11 04:29:40;;;;;;;21.10;3.58;;;12.70;90.80;;;;;;5000770;28;20042;-57
2022/05/11 04:32:07;;;;;;;14.15;2.58;;;12.50;91.00;;;;;;5014048;28;20101;-56
2022/05/11 04:34:33;;;;;;;13.32;3.15;;;12.40;91.00;;;;;;5008481;28;20041;-55
2022/05/11 04:36:59;;;;;;;17.92;2.70;;;12.40;91.10;;;;;;5014373;28;20509;-56
2022/05/11 04:39:24;;;;;;;20.92;3.85;;;12.30;91.30;;;;;;5017343;28;20056;-56
2022/05/11 04:41:51;;;;;;;17.83;3.22;;;12.30;91.50;;;;;;5008786;28;20061;-55
2022/05/11 04:44:17;;;;;;;20.17;4.32;;;12.20;91.70;;;;;;5002644;28;20041;-55
2022/05/11 04:46:42;;;;;;;20.42;3.17;;;12.20;91.80;;;;;;5009766;28;20022;-55
2022/05/11 04:49:19;;;;;;;15.35;3.13;;;12.20;91.90;;;;;;5007491;28;20120;-56
2022/05/11 04:51:47;;;;;;;18.95;3.85;;;12.20;92.00;;;;;;5005953;28;20022;-55
2022/05/11 04:54:13;;;;;;;22.75;4.13;;;12.20;92.00;;;;;;5014306;28;20088;-55
2022/05/11 04:56:39;;;;;;;15.13;3.55;;;12.30;91.80;;;;;;5015527;28;20025;-55
2022/05/11 04:59:08;;;;;;;18.15;3.50;;;12.40;91.70;;;;;;5003538;28;20030;-56
2022/05/11 05:01:35;;;;;;;20.58;3.97;;;12.50;91.50;;;;;;5010025;28;20026;-55
2022/05/11 05:04:01;;;;;;;20.83;4.43;;;12.50;91.40;;;;;;5017203;28;20030;-55
2022/05/11 05:06:32;;;;;;;14.00;3.63;;;12.60;91.30;;;;;;5006783;28;20037;-54
2022/05/11 05:09:03;;;;;;;12.80;2.65;;;12.60;91.20;;;;;;5009877;28;20029;-57
2022/05/11 05:11:29;;;;;;;18.48;2.92;;;12.70;91.00;;;;;;5001454;28;20077;-56
2022/05/11 05:13:54;;;;;;;14.38;3.55;;;12.70;90.70;;;;;;5004614;28;20042;-57
2022/05/11 05:16:20;;;;;;;14.43;2.78;;;12.80;90.50;;;;;;5011339;28;20052;-56
2022/05/11 05:18:46;;;;;;;14.98;3.10;;;12.80;90.00;;;;;;5011011;28;20080;-56
2022/05/11 05:21:12;;;;;;;21.75;3.63;;;12.80;90.50;;;;;;5006134;28;20490;-54
2022/05/11 05:23:37;;;;;;;18.10;3.22;;;12.80;90.80;;;;;;4999116;28;20101;-55
2022/05/11 05:26:03;;;;;;;15.65;4.40;;;12.80;91.20;;;;;;5009019;28;20046;-57
2022/05/11 05:31:16;;;;;;;16.38;3.22;;;12.60;91.50;;;;;;5004505;28;20081;-55
2022/05/11 05:33:42;;;;;;;21.15;4.18;;;12.60;91.30;;;;;;5010047;28;20075;-55
2022/05/11 05:36:09;;;;;;;18.73;3.33;;;12.70;91.30;;;;;;5001227;28;20038;-56
2022/05/11 05:38:38;;;;;;;20.63;4.30;;;12.90;90.80;;;;;;5014159;28;20022;-55
2022/05/11 05:41:04;;;;;;;17.88;3.75;;;12.90;89.50;;;;;;5017804;28;20068;-58
2022/05/11 05:43:30;;;;;;;15.32;3.40;;;13.00;88.80;;;;;;5011084;28;20128;-56
2022/05/11 05:45:56;;;;;;;13.82;3.05;;;13.00;89.10;;;;;;5007867;28;20072;-55
2022/05/11 05:48:23;;;;;;;20.73;3.40;;;13.00;90.00;;;;;;5004679;28;20040;-58
2022/05/11 05:50:49;;;;;;;22.23;4.47;;;13.00;90.10;;;;;;5002293;28;20057;-55
2022/05/11 05:53:19;;;;;;;13.90;4.35;;;13.00;90.30;;;;;;5011363;28;20033;-56
2022/05/11 05:55:48;;;;;;;14.07;2.78;;;13.10;90.30;;;;;;5006885;28;20046;-54
2022/05/11 05:58:14;;;;;;;15.88;2.90;;;13.00;90.20;;;;;;5004953;28;20484;-53
2022/05/11 06:00:40;;;;;;;16.67;3.15;;;13.10;90.40;;;;;;5003571;28;20401;-56
2022/05/11 06:03:06;;;;;;;16.58;4.03;;;13.10;90.30;;;;;;4994137;28;20038;-54
2022/05/11 06:05:31;;;;;;;16.13;3.25;;;13.10;90.10;;;;;;5002046;28;20473;-55
2022/05/11 06:07:57;;;;;;;20.52;3.65;;;13.20;90.10;;;;;;4995736;28;20026;-54
2022/05/11 06:10:25;;;;;;;13.20;2.85;;;13.10;90.10;;;;;;5010402;28;20040;-56
2022/05/11 06:12:51;;;;;;;18.63;2.78;;;13.20;89.90;;;;;;5000774;28;20033;-55
2022/05/11 06:15:16;;;;;;;18.05;2.55;;;13.20;89.80;;;;;;4997416;28;20389;-57
2022/05/11 06:17:42;;;;;;;10.65;2.63;;;13.20;89.20;;;;;;5005215;28;20025;-55
2022/05/11 06:20:09;;;;;;;19.55;4.63;;;13.20;88.70;;;;;;5002446;28;20030;-55
2022/05/11 06:22:36;;;;;;;14.60;2.72;;;13.30;88.20;;;;;;5011961;28;20026;-55
2022/05/11 06:25:03;;;;;;;13.27;2.30;;;13.40;87.70;;;;;;5007667;28;20026;-56
2022/05/11 06:27:29;;;;;;;15.43;2.65;;;13.50;86.20;;;;;;5011767;28;20026;-60
2022/05/11 06:29:59;;;;;;;18.42;2.97;;;13.40;86.10;;;;;;5011261;28;20037;-56
2022/05/11 06:32:26;;;;;;;15.52;2.55;;;13.50;85.60;;;;;;5014171;28;20028;-56
2022/05/11 06:34:53;;;;;;;12.55;2.00;;;13.60;84.80;;;;;;5001658;28;20053;-54
2022/05/11 06:37:21;;;;;;;16.35;3.78;;;13.70;83.80;;;;;;5001966;28;20034;-55
2022/05/11 06:39:48;;;;;;;16.40;2.33;;;13.80;82.50;;;;;;5022354;28;20029;-56
2022/05/11 06:42:14;;;;;;;14.10;2.78;;;13.90;81.20;;;;;;4994600;28;20098;-57
2022/05/11 06:44:40;;;;;;;17.50;2.50;;;13.80;80.90;;;;;;5010402;28;20040;-56
2022/05/11 06:47:07;;;;;;;13.45;2.50;;;13.80;81.10;;;;;;5002256;28;20062;-55
2022/05/11 06:49:33;;;;;;;13.82;2.63;;;13.90;81.00;;;;;;5016109;28;20393;-54
2022/05/11 06:51:59;;;;;;;14.48;2.60;;;14.00;80.90;;;;;;5018904;28;20022;-56
2022/05/11 06:59:56;;;;;;;15.32;2.00;;;14.10;80.50;;;;;;5012714;28;20354;-55
2022/05/11 07:02:22;;;;;;;13.93;2.30;;;14.10;81.20;;;;;;5010429;28;20087;-57
2022/05/11 07:04:48;;;;;;;11.05;2.00;;;14.10;81.70;;;;;;4999415;28;20029;-57
2022/05/11 07:07:14;;;;;;;15.90;2.45;;;14.10;82.20;;;;;;5005607;28;20436;-58
2022/05/11 07:09:40;;;;;;;16.15;4.05;;;14.10;81.50;;;;;;5013317;28;20112;-58
2022/05/11 07:12:25;;;;;;;16.60;3.05;;;14.10;81.90;;;;;;5008138;28;20470;-58
2022/05/11 07:14:58;;;;;;;9.52;1.95;;;14.10;82.00;;;;;;5005903;28;20112;-57
2022/05/11 07:17:23;;;;;;;21.23;2.88;;;14.10;82.00;;;;;;4997504;28;20148;-55
2022/05/11 07:19:49;;;;;;;16.05;3.38;;;14.10;81.00;;;;;;5009461;28;20497;-57
2022/05/11 07:22:15;;;;;;;17.95;1.98;;;14.20;80.70;;;;;;5008833;28;20034;-57
2022/05/11 07:24:42;;;;;;;14.73;2.88;;;14.40;80.00;;;;;;5003128;28;20057;-56
2022/05/11 07:27:08;;;;;;;10.32;2.70;;;14.40;78.60;;;;;;5014417;28;20080;-55
2022/05/11 07:29:34;;;;;;;15.95;2.10;;;14.30;78.10;;;;;;5005761;28;20037;-55
2022/05/11 07:32:00;;;;;;;17.02;2.40;;;14.30;77.70;;;;;;5014860;28;20026;-55
2022/05/11 07:34:26;;;;;;;17.00;4.07;;;14.30;78.00;;;;;;5001264;28;20070;-57
2022/05/11 07:36:54;;;;;;;12.52;1.95;;;14.50;77.90;;;;;;5008635;28;20045;-56
2022/05/11 07:39:23;;;;;;;15.07;3.40;;;14.40;76.10;;;;;;5008578;28;20434;-56
2022/05/11 07:41:50;;;;;;;13.05;1.45;;;14.40;76.80;;;;;;5011436;28;20041;-54
2022/05/11 07:44:16;;;;;;;14.10;2.53;;;14.40;77.00;;;;;;5003459;28;20046;-57
2022/05/11 07:46:43;;;;;;;8.73;2.08;;;14.30;76.60;;;;;;4999922;28;20030;-58
2022/05/11 07:49:10;;;;;;;6.22;2.33;;;14.10;77.40;;;;;;5009867;28;20037;-58
2022/05/11 07:51:36;;;;;;;12.32;2.08;;;14.10;77.80;;;;;;5017412;28;20023;-57
2022/05/11 07:54:05;;;;;;;10.60;2.72;;;14.30;78.10;;;;;;5010414;28;20137;-57
2022/05/11 08:01:59;;;;;;;16.15;2.78;;;14.20;79.20;;;;;;5015815;28;20059;-57
2022/05/11 08:04:25;;;;;;;9.23;2.13;;;14.20;80.00;;;;;;5021415;28;20505;-57
2022/05/11 08:06:51;;;;;;;8.93;2.00;;;14.10;80.20;;;;;;5001369;28;20026;-57
2022/05/11 08:09:16;;;;;;;15.10;3.55;;;14.20;80.20;;;;;;5006507;28;20393;-57
2022/05/11 08:11:42;;;;;;;11.40;2.08;;;14.10;80.40;;;;;;5002987;28;20125;-57
2022/05/11 08:14:08;;;;;;;14.25;1.83;;;14.20;80.60;;;;;;5003415;28;20474;-57
2022/05/11 08:16:34;;;;;;;13.77;2.20;;;14.30;79.30;;;;;;5007249;28;20420;-57
2022/05/11 08:19:01;;;;;;;17.67;2.72;;;14.40;79.10;;;;;;5007712;28;20038;-57
2022/05/11 08:21:27;;;;;;;13.15;2.17;;;14.30;79.80;;;;;;5006457;28;20350;-57
2022/05/11 08:23:53;;;;;;;15.48;2.13;;;14.20;80.40;;;;;;5015783;28;20025;-57
2022/05/11 08:26:19;;;;;;;14.18;2.35;;;14.00;81.00;;;;;;5009963;28;20571;-57
2022/05/11 08:28:45;;;;;;;16.83;3.67;;;13.90;81.50;;;;;;5012044;28;20025;-56
2022/05/11 08:33:55;;;;;;;11.80;1.92;;;13.70;82.10;;;;;;5003970;28;20033;-55
2022/05/11 08:36:24;;;;;;;16.40;2.47;;;13.60;82.30;;;;;;5002875;28;20034;-56
2022/05/11 08:38:55;;;;;;;27.15;4.03;;;13.70;83.00;;;;;;5011918;28;20021;-55
2022/05/11 08:41:42;;;;;;;16.63;2.63;;;13.90;81.90;;;;;;5008852;28;20034;-57
2022/05/11 08:44:10;;;;;;;11.27;2.10;;;14.10;81.20;;;;;;4995496;28;20038;-55
2022/05/11 08:47:06;;;;;;;13.30;2.15;;;14.10;80.70;;;;;;5005203;28;20022;-57
2022/05/11 08:49:55;;;;;;;17.63;2.40;;;14.40;78.80;;;;;;4986396;28;20483;-57
2022/05/11 08:52:43;;;;;;;9.60;1.98;;;14.30;80.10;;;;;;4988965;28;20558;-57
2022/05/11 08:55:23;;;;;;;23.40;2.83;;;14.70;78.70;;;;;;4980326;28;20122;-56
2022/05/11 08:57:49;;;;;;;15.68;2.75;;;14.70;79.50;;;;;;4984473;28;20073;-57
2022/05/11 09:00:18;;;;;;;13.25;3.95;;;14.80;78.90;;;;;;4993450;28;20116;-55
2022/05/11 09:02:47;;;;;;;14.82;2.50;;;14.80;77.50;;;;;;4986105;28;20030;-55
2022/05/11 09:05:14;;;;;;;9.75;2.35;;;14.90;78.20;;;;;;4985402;28;20035;-56
2022/05/11 09:07:44;;;;;;;17.00;2.85;;;15.20;78.40;;;;;;4982128;28;20085;-56
2022/05/11 09:10:16;;;;;;;15.70;2.63;;;15.30;76.00;;;;;;4994615;28;20084;-55
2022/05/11 09:12:42;;;;;;;15.82;2.22;;;15.40;76.70;;;;;;4984786;28;20150;-55
2022/05/11 09:15:08;;;;;;;18.67;2.60;;;15.60;76.10;;;;;;4983061;28;20403;-56
2022/05/11 09:17:37;;;;;;;7.55;1.88;;;15.50;76.00;;;;;;4983810;28;20046;-56
2022/05/11 09:20:15;;;;;;;18.23;2.85;;;15.60;76.10;;;;;;4985085;28;20077;-55
2022/05/11 09:22:55;;;;;;;14.93;2.03;;;15.70;75.10;;;;;;4989493;28;20054;-59
2022/05/11 09:25:28;;;;;;;15.52;2.17;;;15.70;75.70;;;;;;4983443;28;20042;-59
2022/05/11 09:28:20;;;;;;;17.02;2.58;;;16.20;74.40;;;;;;5011664;28;20029;-58
2022/05/11 09:31:06;;;;;;;16.35;2.17;;;16.00;73.30;;;;;;5000122;28;20026;-58
2022/05/11 09:33:34;;;;;;;13.32;1.88;;;15.70;73.10;;;;;;5009048;28;20034;-58
2022/05/11 09:36:04;;;;;;;14.50;2.80;;;15.70;75.10;;;;;;5009796;28;20046;-59
2022/05/11 09:38:40;;;;;;;15.13;2.42;;;15.80;74.50;;;;;;5009654;28;20064;-59
2022/05/11 09:41:13;;;;;;;11.77;2.50;;;15.70;74.30;;;;;;5002116;28;20077;-59
2022/05/11 09:43:51;;;;;;;13.40;2.78;;;16.00;72.70;;;;;;5013020;28;20041;-59
2022/05/11 09:46:22;;;;;;;17.00;3.28;;;16.20;72.20;;;;;;4998212;28;20037;-59
2022/05/11 09:48:57;;;;;;;12.27;1.90;;;16.30;72.30;;;;;;5002854;28;20029;-57
2022/05/11 09:51:31;;;;;;;9.52;2.08;;;16.30;70.40;;;;;;4996464;28;20392;-59
2022/05/11 09:54:18;;;;;;;13.90;2.10;;;16.40;70.60;;;;;;5010611;28;20022;-59
2022/05/11 09:56:49;;;;;;;8.98;1.63;;;16.40;70.10;;;;;;5014118;28;20040;-59
2022/05/11 09:59:43;;;;;;;10.68;2.05;;;16.40;70.00;;;;;;4998805;28;20295;-59
2022/05/11 10:02:36;;;;;;;13.23;3.03;;;16.40;70.90;;;;;;5007959;28;20109;-59
2022/05/11 10:05:26;;;;;;;6.88;2.10;;;16.80;69.70;;;;;;5011055;28;20129;-59
2022/05/11 10:08:25;;;;;;;18.02;3.60;;;16.90;69.50;;;;;;5014870;28;20025;-58
2022/05/11 10:11:11;;;;;;;17.10;4.20;;;16.60;71.20;;;;;;5015638;28;20112;-58
2022/05/11 10:22:31;;;;;;;14.35;3.05;;;16.10;73.50;;;;;;5013080;28;20076;-58
2022/05/11 10:25:26;;;;;;;14.02;3.15;;;16.40;72.50;;;;;;5006133;28;20034;-58
2022/05/11 10:28:01;;;;;;;10.48;2.00;;;16.50;72.60;;;;;;5017859;28;20061;-59
2022/05/11 10:30:48;;;;;;;16.15;2.28;;;16.30;72.00;;;;;;5013312;28;20040;-58
2022/05/11 10:33:47;;;;;;;18.40;2.63;;;16.20;73.00;;;;;;5006721;28;20084;-58
2022/05/11 10:36:12;;;;;;;15.52;3.78;;;16.40;72.60;;;;;;5007400;28;20073;-59
2022/05/11 10:38:57;;;;;;;11.52;3.00;;;16.50;72.00;;;;;;5011200;28;20026;-59
2022/05/11 10:41:32;;;;;;;16.85;2.17;;;16.50;71.50;;;;;;5006036;28;20481;-57
2022/05/11 10:44:07;;;;;;;12.70;2.38;;;16.30;72.80;;;;;;5012492;28;20072;-58
2022/05/11 10:47:04;;;;;;;17.77;2.63;;;16.30;72.50;;;;;;5002841;28;20042;-58
2022/05/11 10:49:36;;;;;;;16.05;2.05;;;16.10;73.50;;;;;;5007172;28;20176;-58
2022/05/11 10:52:08;;;;;;;12.02;1.85;;;16.30;73.40;;;;;;5014756;28;20117;-59
2022/05/11 10:54:40;;;;;;;;;;;16.20;72.50;;;;;;5010646;28;20065;-60
2022/05/11 10:57:25;;;;;;;14.05;1.98;;;15.80;73.60;;;;;;5008701;28;19909;-59
2022/05/11 11:00:13;;;;;;;24.20;2.97;;;15.90;74.30;;;;;;5017652;28;20091;-58
2022/05/11 11:03:05;;;;;;;8.98;2.13;;;16.00;74.50;;;;;;5001978;28;20026;-59
2022/05/11 11:05:39;;;;;;;11.60;2.10;;;16.50;73.20;;;;;;5004633;28;20030;-58
2022/05/11 11:08:26;;;;;;;13.38;2.35;;;16.80;71.30;;;;;;5019111;28;20030;-57
2022/05/11 11:11:01;;;;;;;14.43;2.70;;;17.30;68.60;;;;;;5013198;28;20029;-58
2022/05/11 11:14:02;;;;;;;11.50;2.10;;;17.70;67.60;;;;;;5008130;28;20029;-58
2022/05/11 11:16:37;;;;;;;14.90;1.98;;;17.90;65.40;;;;;;5000353;28;20034;-59
2022/05/11 11:19:08;;;;;;;12.95;2.10;;;17.70;65.10;;;;;;5006013;28;20036;-58
2022/05/11 11:21:37;;;;;;;14.38;2.03;;;17.80;66.00;;;;;;5012167;28;20581;-58
2022/05/11 11:24:22;;;;;;;19.05;2.83;;;18.20;63.50;;;;;;5013262;28;20030;-59
2022/05/11 11:26:57;;;;;;;11.23;2.58;;;17.90;63.20;;;;;;5010111;28;20029;-59
2022/05/11 11:30:14;;;;;;;12.20;2.15;;;17.80;64.70;;;;;;5008541;28;20041;-58
2022/05/11 11:33:10;;;;;;;14.82;2.30;;;17.50;65.20;;;;;;5006017;28;20381;-58
2022/05/11 11:35:50;;;;;;;11.00;1.75;;;17.40;66.70;;;;;;4987651;28;20054;-59
2022/05/11 11:38:28;;;;;;;12.65;3.45;;;18.00;64.50;;;;;;5000197;28;20490;-58
2022/05/11 11:41:14;;;;;;;13.65;2.00;;;18.40;62.00;;;;;;5012679;28;20041;-59
2022/05/11 11:43:51;;;;;;;12.30;2.85;;;18.20;62.30;;;;;;5008031;28;20092;-58
2022/05/11 11:46:47;;;;;;;14.00;2.10;;;17.60;65.50;;;;;;5002326;28;20031;-58
2022/05/11 11:49:19;;;;;;;13.48;1.98;;;16.90;67.60;;;;;;5005847;28;20034;-58
2022/05/11 11:51:50;;;;;;;15.57;2.58;;;16.90;68.40;;;;;;5003757;28;20030;-58
2022/05/11 11:54:46;;;;;;;13.07;2.28;;;16.80;68.60;;;;;;5000785;28;20044;-58
2022/05/11 11:57:20;;;;;;;15.68;2.95;;;16.80;68.50;;;;;;5003769;28;20034;-58
2022/05/11 11:59:53;;;;;;;10.55;2.00;;;16.60;68.90;;;;;;5007072;28;20028;-58
2022/05/11 12:02:40;;;;;;;14.60;2.55;;;16.60;70.80;;;;;;5013278;28;20065;-57
2022/05/11 12:05:09;;;;;;;16.05;3.72;;;16.40;70.30;;;;;;5012354;28;20113;-57
2022/05/11 12:16:53;;;;;;;16.13;3.42;;;17.30;66.40;;;;;;4974387;28;20114;-57
2022/05/11 12:19:21;;;;;;;15.90;2.47;;;17.30;66.10;;;;;;4972901;28;20038;-58
2022/05/11 12:22:03;;;;;;;12.15;2.47;;;17.20;66.70;;;;;;4969510;28;20058;-58
2022/05/11 12:24:39;;;;;;;;;;;16.80;67.90;;;;;;4974774;28;20030;-58
2022/05/11 12:27:27;;;;;;;10.13;1.70;;;16.90;67.90;;;;;;4964168;28;19914;-58
2022/05/11 12:29:58;;;;;;;14.00;3.30;;;16.70;67.90;;;;;;4960299;28;20031;-58
2022/05/11 12:32:25;;;;;;;12.02;2.00;;;17.00;67.80;;;;;;4969399;28;20030;-59
2022/05/11 12:34:51;;;;;;;12.05;2.65;;;16.90;67.20;;;;;;4979308;28;20141;-59
2022/05/11 12:37:29;;;;;;;17.35;1.77;;;17.20;65.50;;;;;;4969668;28;20081;-59
2022/05/11 12:40:14;;;;;;;13.93;2.00;;;17.70;64.80;;;;;;4977014;28;20429;-57
2022/05/11 12:42:44;;;;;;;10.30;1.90;;;17.80;63.60;;;;;;5000252;28;20095;-59
2022/05/11 12:45:20;;;;;;;14.35;2.78;;;17.90;63.10;;;;;;5011773;28;20144;-58
2022/05/11 12:47:53;;;;;;;9.57;2.97;;;18.00;62.10;;;;;;5013043;28;20117;-57
2022/05/11 12:50:46;;;;;;;12.27;2.08;;;17.80;62.30;;;;;;5016582;28;20034;-58
2022/05/11 12:53:15;;;;;;;14.45;2.53;;;17.40;64.50;;;;;;5008650;28;20084;-59
2022/05/11 12:55:41;;;;;;;13.32;2.08;;;17.70;64.20;;;;;;5017325;28;20046;-59
2022/05/11 12:58:07;;;;;;;16.52;1.80;;;18.20;62.30;;;;;;5022147;28;20135;-58
2022/05/11 13:00:34;;;;;;;18.35;1.90;;;18.40;60.70;;;;;;5023464;28;20033;-60
2022/05/11 13:03:19;;;;;;;9.77;1.67;;;17.90;62.20;;;;;;5016451;28;20349;-57
2022/05/11 13:05:46;;;;;;;13.88;2.22;;;17.40;64.40;;;;;;5027027;28;20043;-58
2022/05/11 13:08:14;;;;;;;11.23;1.73;;;17.10;66.70;;;;;;5008579;28;20029;-57
2022/05/11 13:10:41;;;;;;;13.32;2.20;;;16.80;66.90;;;;;;5009065;28;20038;-58
2022/05/11 13:13:19;;;;;;;15.65;2.63;;;16.50;69.00;;;;;;5017149;28;20032;-58
2022/05/11 13:15:47;;;;;;;11.98;2.60;;;16.50;69.30;;;;;;5018507;28;20037;-57
2022/05/11 13:18:26;;;;;;;11.40;2.35;;;16.40;70.40;;;;;;5008403;28;20112;-58
2022/05/11 13:20:54;;;;;;;9.88;3.40;;;16.20;70.90;;;;;;5007130;28;20025;-58
2022/05/11 13:23:33;;;;;;;13.07;2.33;;;15.90;72.40;;;;;;4998947;28;20033;-58
2022/05/11 13:26:10;;;;;;;13.27;2.72;;;15.70;73.20;;;;;;5007210;28;20117;-60
2022/05/11 13:28:42;;;;;;;12.10;2.75;;;15.70;74.00;;;;;;5002205;28;20117;-59
2022/05/11 13:31:23;;;;;;;17.00;2.92;;;15.60;74.70;;;;;;5007543;28;20056;-59
2022/05/11 13:33:49;;;;;;;14.18;2.10;;;15.50;75.00;;;;;;5001312;28;20421;-58
2022/05/11 13:36:42;;;;;;;11.60;2.22;;;15.50;77.10;;;;;;5000679;28;20068;-58
2022/05/11 13:39:11;;;;;;;12.30;2.33;;;15.30;80.20;;;;;;5010662;28;20044;-59
2022/05/11 13:41:42;;;;;;;14.48;2.90;;;15.30;82.40;;;;;;5010592;28;20100;-58